createdAt,value
2023-10-09T00:00:37.300Z,2.83
2023-10-09T00:03:07.761Z,2.80
2023-10-09T00:05:46.955Z,3.30
2023-10-09T00:08:19.583Z,2.63
2023-10-09T00:10:50.901Z,2.57
2023-10-09T00:13:19.793Z,2.50
2023-10-09T00:15:54.778Z,2.83
2023-10-09T00:18:30.401Z,2.67
2023-10-09T00:21:12.187Z,2.80
2023-10-09T00:23:40.129Z,2.07
2023-10-09T00:26:11.654Z,2.83
2023-10-09T00:28:46.187Z,2.90
2023-10-09T00:31:17.285Z,2.83
2023-10-09T00:33:45.434Z,2.43
2023-10-09T00:36:18.825Z,2.70
2023-10-09T00:38:49.691Z,2.70
2023-10-09T00:41:21.345Z,2.70
2023-10-09T00:43:50.923Z,2.70
2023-10-09T00:46:26.060Z,3.50
2023-10-09T00:48:56.892Z,2.10
2023-10-09T00:51:28.437Z,2.70
2023-10-09T00:53:59.345Z,2.67
2023-10-09T00:56:41.048Z,2.77
2023-10-09T00:59:15.167Z,2.70
2023-10-09T01:01:49.732Z,2.93
2023-10-09T01:04:19.353Z,2.10
2023-10-09T01:06:54.557Z,2.20
2023-10-09T01:09:23.852Z,2.10
2023-10-09T01:12:04.891Z,2.80
2023-10-09T01:14:37.143Z,2.63
2023-10-09T01:17:10.245Z,3.30
2023-10-09T01:19:38.690Z,2.40
2023-10-09T01:22:14.174Z,2.30
2023-10-09T01:24:44.426Z,2.50
2023-10-09T01:27:16.000Z,3.00
2023-10-09T01:29:45.302Z,2.87
2023-10-09T01:32:18.802Z,2.63
2023-10-09T01:34:49.662Z,3.00
2023-10-09T01:37:20.300Z,2.20
2023-10-09T01:39:51.870Z,2.33
2023-10-09T01:42:29.229Z,2.77
2023-10-09T01:44:59.315Z,2.80
2023-10-09T01:47:32.785Z,3.10
2023-10-09T01:50:05.917Z,2.27
2023-10-09T01:52:37.266Z,2.53
2023-10-09T01:55:08.927Z,2.97
2023-10-09T01:57:40.654Z,2.73
2023-10-09T02:00:10.436Z,2.20
2023-10-09T02:02:44.520Z,2.40
2023-10-09T02:05:25.900Z,1.97
2023-10-09T02:07:54.044Z,2.60
2023-10-09T02:10:32.716Z,3.13
2023-10-09T02:13:07.863Z,2.30
2023-10-09T02:15:52.510Z,2.43
2023-10-09T02:18:28.405Z,2.80
2023-10-09T02:21:14.668Z,2.10
2023-10-09T02:23:47.519Z,2.57
2023-10-09T02:26:21.009Z,1.93
2023-10-09T02:29:00.154Z,2.20
2023-10-09T02:31:36.619Z,3.07
2023-10-09T02:34:12.015Z,2.60
2023-10-09T02:36:42.810Z,2.50
2023-10-09T02:39:24.122Z,2.67
2023-10-09T02:41:59.603Z,2.63
2023-10-09T02:44:27.720Z,3.20
2023-10-09T02:46:58.998Z,2.73
2023-10-09T02:49:27.752Z,2.70
2023-10-09T02:51:55.445Z,2.70
2023-10-09T02:54:36.871Z,2.57
2023-10-09T02:57:09.345Z,2.50
2023-10-09T02:59:39.857Z,2.57
2023-10-09T03:02:08.696Z,2.63
2023-10-09T03:04:36.465Z,2.40
2023-10-09T03:07:05.344Z,2.57
2023-10-09T03:09:33.546Z,2.90
2023-10-09T03:12:04.549Z,2.13
2023-10-09T03:14:36.533Z,2.50
2023-10-09T03:17:04.572Z,2.27
2023-10-09T03:19:38.361Z,2.17
2023-10-09T03:22:10.293Z,2.77
2023-10-09T03:24:40.084Z,2.40
2023-10-09T03:27:07.863Z,2.53
2023-10-09T03:29:38.220Z,2.83
2023-10-09T03:32:07.486Z,2.30
2023-10-09T03:34:35.063Z,2.63
2023-10-09T03:37:06.762Z,2.37
2023-10-09T03:39:42.311Z,2.07
2023-10-09T03:42:19.949Z,2.10
2023-10-09T03:44:53.742Z,2.07
2023-10-09T03:47:23.983Z,2.43
2023-10-09T03:49:54.317Z,2.40
2023-10-09T03:52:26.420Z,2.33
2023-10-09T03:54:54.398Z,3.63
2023-10-09T03:57:22.630Z,2.93
2023-10-09T03:59:52.870Z,2.90
2023-10-09T04:02:23.234Z,2.40
2023-10-09T04:04:52.183Z,2.50
2023-10-09T04:07:19.971Z,2.67
2023-10-09T04:09:49.659Z,2.60
2023-10-09T04:12:26.700Z,2.70
2023-10-09T04:15:02.587Z,2.27
2023-10-09T04:17:36.773Z,2.80
2023-10-09T04:20:23.200Z,2.10
2023-10-09T04:23:00.926Z,2.47
2023-10-09T04:25:29.075Z,2.97
2023-10-09T04:28:10.472Z,2.83
2023-10-09T04:30:44.196Z,2.57
2023-10-09T04:33:29.128Z,3.33
2023-10-09T04:36:11.498Z,2.70
2023-10-09T04:38:39.677Z,2.60
2023-10-09T04:41:08.984Z,2.37
2023-10-09T04:43:35.588Z,2.93
2023-10-09T04:46:14.149Z,2.53
2023-10-09T04:48:46.834Z,1.80
2023-10-09T04:51:22.237Z,2.80
2023-10-09T04:54:01.302Z,2.40
2023-10-09T04:56:33.007Z,2.20
2023-10-09T04:59:08.994Z,2.30
2023-10-09T05:01:44.924Z,2.63
2023-10-09T05:04:29.728Z,2.37
2023-10-09T05:06:57.399Z,3.10
2023-10-09T05:09:25.194Z,2.60
2023-10-09T05:11:55.854Z,2.33
2023-10-09T05:14:28.142Z,3.10
2023-10-09T05:17:02.448Z,2.57
2023-10-09T05:19:43.044Z,2.20
2023-10-09T05:22:31.442Z,2.50
2023-10-09T05:25:00.476Z,2.70
2023-10-09T05:27:42.168Z,4.00
2023-10-09T05:30:26.979Z,2.77
2023-10-09T05:32:59.307Z,2.80
2023-10-09T05:35:41.572Z,3.43
2023-10-09T05:38:23.991Z,2.37
2023-10-09T05:40:54.885Z,2.63
2023-10-09T05:43:40.921Z,2.97
2023-10-09T05:46:10.926Z,2.83
2023-10-09T05:48:55.695Z,3.17
2023-10-09T05:51:41.553Z,2.50
2023-10-09T05:54:26.977Z,2.53
2023-10-09T05:57:11.913Z,2.70
2023-10-09T05:59:57.527Z,2.40
2023-10-09T06:02:55.764Z,2.70
2023-10-09T06:05:43.041Z,2.50
2023-10-09T06:08:14.329Z,2.57
2023-10-09T06:10:43.013Z,2.60
2023-10-09T06:13:38.485Z,2.73
2023-10-09T06:16:21.110Z,2.40
2023-10-09T06:19:09.325Z,3.40
2023-10-09T06:21:41.276Z,2.97
2023-10-09T06:24:17.081Z,3.43
2023-10-09T06:27:13.328Z,2.27
2023-10-09T06:29:52.729Z,3.00
2023-10-09T06:32:38.571Z,3.53
2023-10-09T06:35:23.226Z,3.20
2023-10-09T06:38:11.009Z,2.87
2023-10-09T06:40:56.955Z,3.13
2023-10-09T06:43:33.056Z,2.83
2023-10-09T06:46:20.951Z,3.20
2023-10-09T06:48:56.965Z,2.73
2023-10-09T06:51:42.811Z,2.40
2023-10-09T06:54:11.332Z,3.20
2023-10-09T06:56:56.134Z,3.60
2023-10-09T06:59:25.243Z,4.00
2023-10-09T07:02:07.513Z,3.57
2023-10-09T07:04:55.853Z,3.73
2023-10-09T07:07:25.788Z,3.37
2023-10-09T07:10:09.637Z,3.67
2023-10-09T07:12:43.830Z,3.50
2023-10-09T07:15:29.697Z,3.60
2023-10-09T07:18:17.394Z,3.90
2023-10-09T07:20:59.863Z,3.93
2023-10-09T07:23:33.692Z,3.30
2023-10-09T07:26:24.661Z,3.77
2023-10-09T07:29:12.654Z,3.50
2023-10-09T07:34:27.935Z,3.00
2023-10-09T07:36:57.996Z,4.30
2023-10-09T07:39:35.637Z,4.10
2023-10-09T07:42:20.889Z,4.53
2023-10-09T07:44:54.091Z,4.50
2023-10-09T07:47:24.347Z,4.97
2023-10-09T07:49:55.593Z,4.17
2023-10-09T07:52:27.477Z,4.90
2023-10-09T07:55:02.671Z,4.40
2023-10-09T07:57:39.978Z,4.67
2023-10-09T08:00:36.516Z,5.20
2023-10-09T08:03:03.956Z,4.63
2023-10-09T08:05:35.261Z,4.37
2023-10-09T08:08:36.086Z,3.50
2023-10-09T08:11:23.699Z,4.03
2023-10-09T08:13:58.106Z,6.43
2023-10-09T08:16:28.243Z,4.17
2023-10-09T08:18:58.360Z,4.50
2023-10-09T08:21:40.119Z,5.03
2023-10-09T08:24:28.472Z,4.20
2023-10-09T08:27:17.262Z,4.30
2023-10-09T08:29:48.415Z,4.40
2023-10-09T08:35:29.969Z,3.70
2023-10-09T08:37:59.942Z,4.13
2023-10-09T08:40:34.314Z,4.43
2023-10-09T08:43:11.106Z,4.10
2023-10-09T08:45:42.059Z,3.90
2023-10-09T08:48:16.398Z,4.00
2023-10-09T08:50:45.301Z,3.17
2023-10-09T08:53:13.630Z,4.37
2023-10-09T08:55:42.337Z,6.50
2023-10-09T08:58:17.008Z,4.60
2023-10-09T09:00:46.908Z,4.30
2023-10-09T09:03:17.189Z,3.90
2023-10-09T09:05:47.546Z,4.83
2023-10-09T09:08:29.723Z,4.90
2023-10-09T09:11:12.767Z,4.77
2023-10-09T09:13:43.027Z,5.47
2023-10-09T09:16:19.341Z,5.87
2023-10-09T09:18:54.003Z,5.70
2023-10-09T09:21:23.461Z,4.80
2023-10-09T09:24:00.125Z,5.90
2023-10-09T09:26:38.440Z,5.30
2023-10-09T09:29:08.314Z,4.80
2023-10-09T09:31:39.892Z,4.63
2023-10-09T09:34:15.102Z,4.90
2023-10-09T09:36:54.901Z,4.90
2023-10-09T09:39:35.529Z,4.43
2023-10-09T09:42:15.065Z,5.03
2023-10-09T09:44:45.697Z,5.00
2023-10-09T09:47:24.761Z,5.50
2023-10-09T09:49:54.006Z,4.83
2023-10-09T09:52:25.891Z,4.60
2023-10-09T09:54:54.021Z,4.70
2023-10-09T09:57:28.081Z,4.87
2023-10-09T09:59:57.979Z,4.37
2023-10-09T10:02:34.693Z,4.60
2023-10-09T10:05:08.301Z,4.93
2023-10-09T10:07:42.805Z,5.30
2023-10-09T10:10:35.463Z,4.80
2023-10-09T10:13:03.998Z,5.57
2023-10-09T10:16:01.935Z,4.80
2023-10-09T10:18:36.425Z,5.10
2023-10-09T10:21:18.758Z,4.17
2023-10-09T10:23:49.497Z,4.50
2023-10-09T10:26:27.042Z,4.07
2023-10-09T10:29:27.576Z,4.20
2023-10-09T10:31:57.229Z,4.97
2023-10-09T10:34:26.895Z,4.20
2023-10-09T10:37:00.756Z,3.83
2023-10-09T10:39:44.688Z,3.97
2023-10-09T10:42:16.780Z,4.40
2023-10-09T10:44:46.049Z,3.80
2023-10-09T10:47:26.326Z,3.50
2023-10-09T10:50:00.500Z,3.80
2023-10-09T10:52:43.578Z,3.50
2023-10-09T10:55:42.183Z,4.33
2023-10-09T10:58:24.913Z,3.63
2023-10-09T11:01:14.814Z,3.93
2023-10-09T11:06:38.648Z,2.67
2023-10-09T11:09:23.347Z,3.27
2023-10-09T11:11:56.764Z,3.60
2023-10-09T11:14:25.023Z,3.50
2023-10-09T11:16:59.557Z,3.50
2023-10-09T11:19:34.242Z,3.47
2023-10-09T11:22:21.586Z,3.43
2023-10-09T11:25:02.345Z,2.87
2023-10-09T11:27:33.916Z,3.20
2023-10-09T11:30:06.850Z,3.63
2023-10-09T11:32:39.630Z,3.13
2023-10-09T11:35:16.416Z,2.90
2023-10-09T11:37:45.766Z,3.73
2023-10-09T11:40:35.094Z,2.63
2023-10-09T11:43:04.992Z,3.13
2023-10-09T11:45:38.692Z,2.63
2023-10-09T11:48:28.875Z,2.97
2023-10-09T11:51:14.385Z,3.27
2023-10-09T11:53:44.744Z,3.17
2023-10-09T11:56:15.513Z,3.10
2023-10-09T11:58:43.687Z,2.90
2023-10-09T12:01:18.657Z,3.30
2023-10-09T12:03:50.845Z,2.90
2023-10-09T12:06:20.315Z,3.60
2023-10-09T12:08:49.459Z,3.07
2023-10-09T12:11:24.808Z,3.50
2023-10-09T12:13:57.451Z,2.87
2023-10-09T12:16:30.009Z,2.73
2023-10-09T12:18:58.263Z,2.57
2023-10-09T12:21:29.325Z,1.97
2023-10-09T12:24:01.766Z,2.50
2023-10-09T12:26:36.557Z,2.00
2023-10-09T12:29:05.023Z,2.00
2023-10-09T12:31:35.221Z,2.60
2023-10-09T12:34:03.898Z,2.50
2023-10-09T12:36:31.776Z,2.00
2023-10-09T12:39:02.379Z,2.10
2023-10-09T12:41:34.645Z,2.30
2023-10-09T12:44:03.054Z,1.93
2023-10-09T12:46:38.706Z,2.70
2023-10-09T12:49:07.355Z,2.10
2023-10-09T12:51:35.296Z,3.20
2023-10-09T12:54:04.525Z,3.70
2023-10-09T12:56:38.870Z,4.53
2023-10-09T12:59:08.634Z,2.67
2023-10-09T13:01:44.072Z,3.27
2023-10-09T13:04:14.957Z,2.90
2023-10-09T13:06:45.091Z,2.93
2023-10-09T13:09:15.393Z,3.20
2023-10-09T13:11:43.752Z,3.07
2023-10-09T13:14:18.431Z,3.37
2023-10-09T13:16:47.360Z,3.10
2023-10-09T13:19:15.402Z,3.10
2023-10-09T13:21:43.449Z,3.10
2023-10-09T13:24:14.787Z,3.20
2023-10-09T13:26:46.370Z,3.43
2023-10-09T13:29:17.481Z,3.20
2023-10-09T13:31:49.173Z,3.53
2023-10-09T13:34:17.547Z,4.03
2023-10-09T13:36:51.309Z,4.17
2023-10-09T13:39:25.331Z,3.80
2023-10-09T13:41:59.703Z,4.00
2023-10-09T13:44:29.026Z,5.10
2023-10-09T13:46:57.436Z,4.40
2023-10-09T13:49:31.602Z,4.50
2023-10-09T13:52:00.856Z,4.30
2023-10-09T13:54:40.712Z,3.93
2023-10-09T13:57:12.077Z,4.40
2023-10-09T13:59:44.230Z,4.80
2023-10-09T14:02:18.768Z,4.67
2023-10-09T14:04:48.405Z,4.30
2023-10-09T14:07:18.433Z,4.27
2023-10-09T14:09:57.086Z,4.37
2023-10-09T14:12:30.840Z,3.77
2023-10-09T14:14:58.686Z,4.30
2023-10-09T14:17:27.365Z,4.33
2023-10-09T14:19:56.038Z,6.10
2023-10-09T14:22:25.934Z,6.67
2023-10-09T14:24:56.484Z,5.83
2023-10-09T14:27:28.394Z,6.80
2023-10-09T14:30:00.157Z,6.20
2023-10-09T14:32:30.407Z,6.50
2023-10-09T14:35:02.169Z,6.50
2023-10-09T14:37:30.325Z,6.87
2023-10-09T14:39:59.894Z,6.57
2023-10-09T14:42:30.242Z,6.80
2023-10-09T14:44:57.939Z,6.50
2023-10-09T14:47:27.310Z,6.23
2023-10-09T14:49:57.630Z,6.73
2023-10-09T14:52:25.443Z,6.60
2023-10-09T14:54:53.386Z,7.37
2023-10-09T14:57:21.245Z,6.23
2023-10-09T14:59:50.601Z,7.43
2023-10-09T15:02:19.242Z,7.30
2023-10-09T15:04:47.319Z,7.67
2023-10-09T15:07:30.207Z,6.87
2023-10-09T15:10:10.394Z,7.37
2023-10-09T15:12:43.753Z,7.37
2023-10-09T15:15:14.889Z,5.47
2023-10-09T15:17:45.110Z,5.73
2023-10-09T15:20:15.653Z,6.30
2023-10-09T15:22:43.760Z,6.10
2023-10-09T15:25:15.556Z,6.37
2023-10-09T15:27:44.135Z,6.90
2023-10-09T15:30:15.762Z,6.53
2023-10-09T15:32:44.049Z,7.00
2023-10-09T15:35:14.037Z,7.80
2023-10-09T15:37:43.267Z,7.43
2023-10-09T15:40:15.406Z,8.53
2023-10-09T15:42:50.808Z,8.73
2023-10-09T15:45:22.892Z,10.30
2023-10-09T15:47:52.268Z,9.50
2023-10-09T15:50:20.511Z,10.97
2023-10-09T15:52:52.568Z,9.73
2023-10-09T15:55:22.209Z,9.97
2023-10-09T15:57:50.810Z,9.83
2023-10-09T16:00:21.078Z,10.93
2023-10-09T16:02:49.585Z,11.73
2023-10-09T16:05:17.899Z,10.30
2023-10-09T16:07:46.028Z,10.67
2023-10-09T16:10:13.783Z,11.07
2023-10-09T16:12:42.999Z,11.47
2023-10-09T16:15:15.476Z,12.07
2023-10-09T16:17:44.996Z,11.57
2023-10-09T16:20:16.978Z,13.20
2023-10-09T16:22:46.787Z,11.20
2023-10-09T16:25:18.297Z,13.10
2023-10-09T16:27:48.503Z,12.07
2023-10-09T16:30:19.585Z,11.87
2023-10-09T16:32:49.070Z,12.20
2023-10-09T16:35:17.676Z,12.60
2023-10-09T16:37:45.653Z,12.37
2023-10-09T16:40:14.898Z,12.97
2023-10-09T16:42:43.614Z,12.43
2023-10-09T16:45:16.990Z,12.50
2023-10-09T16:47:48.288Z,11.33
2023-10-09T16:50:17.035Z,11.73
2023-10-09T16:52:45.382Z,12.63
2023-10-09T16:55:13.521Z,25.67
2023-10-09T16:57:44.921Z,17.97
2023-10-09T17:00:29.575Z,17.53
2023-10-09T17:03:00.318Z,13.47
2023-10-09T17:05:33.795Z,15.03
2023-10-09T17:08:02.168Z,13.33
2023-10-09T17:10:30.618Z,12.37
2023-10-09T17:12:59.085Z,10.80
2023-10-09T17:15:33.907Z,11.83
2023-10-09T17:18:03.341Z,10.50
2023-10-09T17:20:31.680Z,10.57
2023-10-09T17:23:01.173Z,10.00
2023-10-09T17:25:32.369Z,10.53
2023-10-09T17:28:00.855Z,8.97
2023-10-09T17:30:29.130Z,6.57
2023-10-09T17:32:58.925Z,6.47
2023-10-09T17:35:29.403Z,4.63
2023-10-09T17:37:57.750Z,4.53
2023-10-09T17:40:29.146Z,4.40
2023-10-09T17:42:57.709Z,5.60
2023-10-09T17:45:26.389Z,5.17
2023-10-09T17:47:55.263Z,5.03
2023-10-09T17:50:24.198Z,4.57
2023-10-09T17:52:55.663Z,5.27
2023-10-09T17:55:24.354Z,3.47
2023-10-09T17:57:52.373Z,3.20
2023-10-09T18:00:24.289Z,3.00
2023-10-09T18:02:53.194Z,2.47
2023-10-09T18:05:21.662Z,2.00
2023-10-09T18:07:50.992Z,2.60
2023-10-09T18:10:22.359Z,2.50
2023-10-09T18:12:50.843Z,2.27
2023-10-09T18:15:22.003Z,2.20
2023-10-09T18:17:50.268Z,1.87
2023-10-09T18:20:21.779Z,1.73
2023-10-09T18:22:50.001Z,1.90
2023-10-09T18:25:19.089Z,2.10
2023-10-09T18:27:48.454Z,2.13
2023-10-09T18:30:19.391Z,1.50
2023-10-09T18:32:47.617Z,2.20
2023-10-09T18:35:17.074Z,2.20
2023-10-09T18:37:45.261Z,2.37
2023-10-09T18:40:13.497Z,2.47
2023-10-09T18:42:41.448Z,3.00
2023-10-09T18:45:12.106Z,3.20
2023-10-09T18:47:40.215Z,3.50
2023-10-09T18:50:12.873Z,3.23
2023-10-09T18:52:43.814Z,4.10
2023-10-09T18:55:13.834Z,4.40
2023-10-09T18:57:44.241Z,5.20
2023-10-09T19:00:21.382Z,4.60
2023-10-09T19:02:52.202Z,4.90
2023-10-09T19:05:20.786Z,4.63
2023-10-09T19:07:49.018Z,4.23
2023-10-09T19:10:19.752Z,4.50
2023-10-09T19:12:48.896Z,4.73
2023-10-09T19:15:19.522Z,4.13
2023-10-09T19:17:47.773Z,3.10
2023-10-09T19:20:18.334Z,3.07
2023-10-09T19:22:51.086Z,3.10
2023-10-09T19:25:22.335Z,2.83
2023-10-09T19:27:50.567Z,2.10
2023-10-09T19:30:20.821Z,15.40
2023-10-09T19:32:49.475Z,3.20
2023-10-09T19:35:19.524Z,3.23
2023-10-09T19:37:49.531Z,10.07
2023-10-09T19:40:17.711Z,4.77
2023-10-09T19:42:45.801Z,8.53
2023-10-09T19:45:15.158Z,6.03
2023-10-09T19:47:44.634Z,5.10
2023-10-09T19:50:14.968Z,6.40
2023-10-09T19:52:43.562Z,6.60
2023-10-09T19:55:11.887Z,10.60
2023-10-09T19:57:40.996Z,6.30
2023-10-09T20:00:12.521Z,9.93
2023-10-09T20:02:42.499Z,6.30
2023-10-09T20:05:16.312Z,6.50
2023-10-09T20:07:44.326Z,6.23
2023-10-09T20:10:18.071Z,6.80
2023-10-09T20:12:46.169Z,7.23
2023-10-09T20:15:14.923Z,6.77
2023-10-09T20:17:44.512Z,6.60
2023-10-09T20:20:14.612Z,5.83
2023-10-09T20:22:42.515Z,6.90
2023-10-09T20:25:14.009Z,8.00
2023-10-09T20:27:43.229Z,6.37
2023-10-09T20:30:12.777Z,7.33
2023-10-09T20:32:41.623Z,7.33
2023-10-09T20:35:13.754Z,6.63
2023-10-09T20:37:44.393Z,7.53
2023-10-09T20:40:19.486Z,7.07
2023-10-09T20:42:48.613Z,8.40
2023-10-09T20:45:17.125Z,10.37
2023-10-09T20:47:46.415Z,7.27
2023-10-09T20:50:16.010Z,8.30
2023-10-09T20:52:49.539Z,7.93
2023-10-09T20:55:21.033Z,6.80
2023-10-09T20:57:49.053Z,7.00
2023-10-09T21:00:21.249Z,6.80
2023-10-09T21:02:49.433Z,7.50
2023-10-09T21:05:17.968Z,6.40
2023-10-09T21:07:48.597Z,5.83
2023-10-09T21:10:16.924Z,5.53
2023-10-09T21:12:45.264Z,6.20
2023-10-09T21:15:15.039Z,6.10
2023-10-09T21:17:43.282Z,5.43
2023-10-09T21:20:17.304Z,5.57
2023-10-09T21:22:45.483Z,4.70
2023-10-09T21:25:15.931Z,5.83
2023-10-09T21:27:43.808Z,6.60
2023-10-09T21:30:16.669Z,6.20
2023-10-09T21:32:44.691Z,7.53
2023-10-09T21:35:17.503Z,5.90
2023-10-09T21:37:46.986Z,5.83
2023-10-09T21:40:24.244Z,6.10
2023-10-09T21:42:53.514Z,6.73
2023-10-09T21:45:22.567Z,6.40
2023-10-09T21:47:56.383Z,6.33
2023-10-09T21:50:26.115Z,6.67
2023-10-09T21:52:54.379Z,6.17
2023-10-09T21:55:24.172Z,7.97
2023-10-09T21:57:52.194Z,6.63
2023-10-09T22:00:31.170Z,8.77
2023-10-09T22:02:59.013Z,7.00
2023-10-09T22:05:27.544Z,8.57
2023-10-09T22:07:57.200Z,8.10
2023-10-09T22:10:26.528Z,7.93
2023-10-09T22:12:54.755Z,8.70
2023-10-09T22:15:23.176Z,9.10
2023-10-09T22:17:50.889Z,8.83
2023-10-09T22:20:20.396Z,9.03
2023-10-09T22:22:49.194Z,8.50
2023-10-09T22:25:18.358Z,9.57
2023-10-09T22:27:52.389Z,10.97
2023-10-09T22:30:30.236Z,8.60
2023-10-09T22:33:03.746Z,9.40
2023-10-09T22:35:32.182Z,9.40
2023-10-09T22:38:00.181Z,8.80
2023-10-09T22:40:28.330Z,12.10
2023-10-09T22:42:58.161Z,8.67
2023-10-09T22:45:33.119Z,10.60
2023-10-09T22:48:04.793Z,9.63
2023-10-09T22:50:35.776Z,8.63
2023-10-09T22:53:12.447Z,10.47
2023-10-09T22:55:45.218Z,9.97
2023-10-09T22:58:18.179Z,9.93
2023-10-09T23:00:52.019Z,9.73
2023-10-09T23:03:28.213Z,10.47
2023-10-09T23:05:58.782Z,9.90
2023-10-09T23:08:27.819Z,9.60
2023-10-09T23:11:09.574Z,10.40
2023-10-09T23:13:53.015Z,10.40
2023-10-09T23:16:26.532Z,9.00
2023-10-09T23:19:30.590Z,9.77
2023-10-09T23:22:09.252Z,9.47
2023-10-09T23:24:36.280Z,9.77
2023-10-09T23:27:04.577Z,9.40
2023-10-09T23:29:34.307Z,9.70
2023-10-09T23:32:18.364Z,10.40
2023-10-09T23:34:54.017Z,8.57
2023-10-09T23:37:34.434Z,8.90
2023-10-09T23:40:05.115Z,9.40
2023-10-09T23:42:38.460Z,9.80
2023-10-09T23:45:09.460Z,8.57
2023-10-09T23:47:42.156Z,10.13
2023-10-09T23:50:17.207Z,11.00
2023-10-09T23:52:47.500Z,9.40
2023-10-09T23:55:15.899Z,10.60
2023-10-09T23:57:44.174Z,12.00
